sensor_id;sensor_type;location;lat;lon;timestamp;pressure;altitude;pressure_sealevel;temperature;humidity
70314;BME280;57725;47.526;18.986;2023-05-07T00:01:38;99801.53;;;17.85;84.93
70314;BME280;57725;47.526;18.986;2023-05-07T00:04:08;99796.25;;;17.85;84.96
70314;BME280;57725;47.526;18.986;2023-05-07T00:06:39;99797.31;;;17.82;84.85
70314;BME280;57725;47.526;18.986;2023-05-07T00:09:07;99805.13;;;17.84;85.19
70314;BME280;57725;47.526;18.986;2023-05-07T00:11:35;99800.81;;;17.83;85.21
70314;BME280;57725;47.526;18.986;2023-05-07T00:14:00;99797.31;;;17.82;85.08
70314;BME280;57725;47.526;18.986;2023-05-07T00:16:26;99795.63;;;17.81;85.09
70314;BME280;57725;47.526;18.986;2023-05-07T00:18:54;99797.53;;;17.79;85.01
70314;BME280;57725;47.526;18.986;2023-05-07T00:21:24;99797.53;;;17.79;85.17
70314;BME280;57725;47.526;18.986;2023-05-07T00:23:57;99793.09;;;17.80;85.21
70314;BME280;57725;47.526;18.986;2023-05-07T00:26:22;99793.19;;;17.78;85.20
70314;BME280;57725;47.526;18.986;2023-05-07T00:28:50;99795.00;;;17.78;85.20
70314;BME280;57725;47.526;18.986;2023-05-07T00:31:18;99806.41;;;17.78;85.20
70314;BME280;57725;47.526;18.986;2023-05-07T00:33:46;99801.28;;;17.77;85.23
70314;BME280;57725;47.526;18.986;2023-05-07T00:36:12;99800.44;;;17.76;85.24
70314;BME280;57725;47.526;18.986;2023-05-07T00:38:40;99800.53;;;17.75;85.24
70314;BME280;57725;47.526;18.986;2023-05-07T00:41:05;99802.34;;;17.74;85.02
70314;BME280;57725;47.526;18.986;2023-05-07T00:43:33;99809.41;;;17.73;85.01
70314;BME280;57725;47.526;18.986;2023-05-07T00:45:59;99811.22;;;17.73;85.27
70314;BME280;57725;47.526;18.986;2023-05-07T00:48:25;99807.72;;;17.72;85.25
70314;BME280;57725;47.526;18.986;2023-05-07T00:50:51;99810.38;;;17.72;85.31
70314;BME280;57725;47.526;18.986;2023-05-07T00:53:16;99806.88;;;17.72;85.23
70314;BME280;57725;47.526;18.986;2023-05-07T00:55:44;99814.81;;;17.72;85.42
70314;BME280;57725;47.526;18.986;2023-05-07T00:58:10;99811.31;;;17.71;85.25
70314;BME280;57725;47.526;18.986;2023-05-07T01:00:35;99807.94;;;17.69;85.47
70314;BME280;57725;47.526;18.986;2023-05-07T01:03:03;99817.56;;;17.70;85.29
70314;BME280;57725;47.526;18.986;2023-05-07T01:05:31;99813.22;;;17.69;85.48
70314;BME280;57725;47.526;18.986;2023-05-07T01:07:58;99812.38;;;17.69;85.41
70314;BME280;57725;47.526;18.986;2023-05-07T01:10:24;99816.81;;;17.68;85.33
70314;BME280;57725;47.526;18.986;2023-05-07T01:12:54;99809.84;;;17.67;85.64
70314;BME280;57725;47.526;18.986;2023-05-07T01:15:22;99811.66;;;17.67;85.39
70314;BME280;57725;47.526;18.986;2023-05-07T01:17:48;99819.59;;;17.67;85.35
70314;BME280;57725;47.526;18.986;2023-05-07T01:20:15;99818.97;;;17.63;85.40
70314;BME280;57725;47.526;18.986;2023-05-07T01:22:43;99827.75;;;17.64;85.36
70314;BME280;57725;47.526;18.986;2023-05-07T01:25:11;99831.34;;;17.63;85.54
70314;BME280;57725;47.526;18.986;2023-05-07T01:27:36;99833.03;;;17.64;85.52
70314;BME280;57725;47.526;18.986;2023-05-07T01:30:08;99827.00;;;17.62;85.50
70314;BME280;57725;47.526;18.986;2023-05-07T01:32:51;99830.47;;;17.62;85.61
70314;BME280;57725;47.526;18.986;2023-05-07T01:35:36;99825.28;;;17.61;85.34
70314;BME280;57725;47.526;18.986;2023-05-07T01:38:03;99827.09;;;17.60;85.53
70314;BME280;57725;47.526;18.986;2023-05-07T01:40:31;99817.47;;;17.59;85.63
70314;BME280;57725;47.526;18.986;2023-05-07T01:42:57;99814.84;;;17.59;85.65
70314;BME280;57725;47.526;18.986;2023-05-07T01:45:23;99816.63;;;17.59;85.65
70314;BME280;57725;47.526;18.986;2023-05-07T01:47:49;99817.56;;;17.58;85.74
70314;BME280;57725;47.526;18.986;2023-05-07T01:50:18;99811.44;;;17.57;85.63
70314;BME280;57725;47.526;18.986;2023-05-07T01:52:44;99813.34;;;17.55;85.85
70314;BME280;57725;47.526;18.986;2023-05-07T01:55:12;99810.72;;;17.55;85.79
70314;BME280;57725;47.526;18.986;2023-05-07T01:57:40;99802.78;;;17.55;85.70
70314;BME280;57725;47.526;18.986;2023-05-07T02:00:08;99803.72;;;17.54;85.77
70314;BME280;57725;47.526;18.986;2023-05-07T02:02:34;99807.34;;;17.53;85.71
70314;BME280;57725;47.526;18.986;2023-05-07T02:05:00;99806.50;;;17.53;85.80
70314;BME280;57725;47.526;18.986;2023-05-07T02:07:28;99803.03;;;17.52;85.89
70314;BME280;57725;47.526;18.986;2023-05-07T02:09:56;99813.59;;;17.52;85.79
70314;BME280;57725;47.526;18.986;2023-05-07T02:12:22;99809.25;;;17.51;85.88
70314;BME280;57725;47.526;18.986;2023-05-07T02:14:52;99811.06;;;17.51;85.94
70314;BME280;57725;47.526;18.986;2023-05-07T02:17:17;99814.66;;;17.50;85.81
70314;BME280;57725;47.526;18.986;2023-05-07T02:19:43;99806.72;;;17.50;85.83
70314;BME280;57725;47.526;18.986;2023-05-07T02:22:09;99802.41;;;17.49;85.94
70314;BME280;57725;47.526;18.986;2023-05-07T02:24:35;99798.91;;;17.48;85.93
70314;BME280;57725;47.526;18.986;2023-05-07T02:27:02;99799.84;;;17.47;86.10
70314;BME280;57725;47.526;18.986;2023-05-07T02:29:32;99793.00;;;17.45;86.04
70314;BME280;57725;47.526;18.986;2023-05-07T02:32:00;99799.00;;;17.47;86.18
70314;BME280;57725;47.526;18.986;2023-05-07T02:34:26;99800.06;;;17.44;85.82
70314;BME280;57725;47.526;18.986;2023-05-07T02:36:51;99793.00;;;17.45;86.04
70314;BME280;57725;47.526;18.986;2023-05-07T02:39:19;99792.13;;;17.44;86.11
70314;BME280;57725;47.526;18.986;2023-05-07T02:41:51;99798.38;;;17.43;86.08
70314;BME280;57725;47.526;18.986;2023-05-07T02:44:18;99793.22;;;17.42;86.21
70314;BME280;57725;47.526;18.986;2023-05-07T02:46:46;99799.38;;;17.42;86.14
70314;BME280;57725;47.526;18.986;2023-05-07T02:49:14;99801.28;;;17.40;86.12
70314;BME280;57725;47.526;18.986;2023-05-07T02:51:39;99803.06;;;17.40;86.14
70314;BME280;57725;47.526;18.986;2023-05-07T02:54:07;99807.41;;;17.41;86.15
70314;BME280;57725;47.526;18.986;2023-05-07T02:56:35;99793.56;;;17.37;86.22
70314;BME280;57725;47.526;18.986;2023-05-07T02:59:03;99799.69;;;17.37;86.23
70314;BME280;57725;47.526;18.986;2023-05-07T03:01:33;99804.13;;;17.37;86.30
70314;BME280;57725;47.526;18.986;2023-05-07T03:04:01;99809.41;;;17.37;86.30
70314;BME280;57725;47.526;18.986;2023-05-07T03:06:27;99807.72;;;17.36;86.39
70314;BME280;57725;47.526;18.986;2023-05-07T03:08:52;99798.94;;;17.35;86.38
70314;BME280;57725;47.526;18.986;2023-05-07T03:11:18;99803.47;;;17.33;86.36
70314;BME280;57725;47.526;18.986;2023-05-07T03:13:43;99796.41;;;17.34;86.42
70314;BME280;57725;47.526;18.986;2023-05-07T03:16:11;99799.16;;;17.32;86.55
70314;BME280;57725;47.526;18.986;2023-05-07T03:18:36;99800.94;;;17.32;86.56
70314;BME280;57725;47.526;18.986;2023-05-07T03:21:02;99802.75;;;17.31;86.56
70314;BME280;57725;47.526;18.986;2023-05-07T03:23:27;99807.31;;;17.29;86.47
70314;BME280;57725;47.526;18.986;2023-05-07T03:25:52;99803.84;;;17.29;86.41
70314;BME280;57725;47.526;18.986;2023-05-07T03:28:22;99804.69;;;17.29;86.59
70314;BME280;57725;47.526;18.986;2023-05-07T03:30:48;99803.84;;;17.29;86.39
70314;BME280;57725;47.526;18.986;2023-05-07T03:33:13;99804.88;;;17.26;86.51
70314;BME280;57725;47.526;18.986;2023-05-07T03:35:44;99805.72;;;17.27;86.58
70314;BME280;57725;47.526;18.986;2023-05-07T03:38:14;99804.88;;;17.26;86.61
70314;BME280;57725;47.526;18.986;2023-05-07T03:40:44;99811.13;;;17.25;86.66
70314;BME280;57725;47.526;18.986;2023-05-07T03:43:12;99796.31;;;17.23;86.73
70314;BME280;57725;47.526;18.986;2023-05-07T03:45:37;99801.50;;;17.24;86.74
70314;BME280;57725;47.526;18.986;2023-05-07T03:48:03;99799.81;;;17.23;86.80
70314;BME280;57725;47.526;18.986;2023-05-07T03:50:28;99802.47;;;17.23;86.74
70314;BME280;57725;47.526;18.986;2023-05-07T03:52:53;99805.09;;;17.23;86.81
70314;BME280;57725;47.526;18.986;2023-05-07T03:55:19;99807.00;;;17.21;86.82
70314;BME280;57725;47.526;18.986;2023-05-07T03:57:44;99803.50;;;17.21;86.72
70314;BME280;57725;47.526;18.986;2023-05-07T04:00:11;99807.09;;;17.20;86.73
70314;BME280;57725;47.526;18.986;2023-05-07T04:02:39;99812.38;;;17.20;86.77
70314;BME280;57725;47.526;18.986;2023-05-07T04:05:05;99808.09;;;17.19;86.80
70314;BME280;57725;47.526;18.986;2023-05-07T04:07:30;99806.41;;;17.18;86.91
70314;BME280;57725;47.526;18.986;2023-05-07T04:09:56;99810.00;;;17.17;86.91
70314;BME280;57725;47.526;18.986;2023-05-07T04:12:21;99810.94;;;17.16;86.85
70314;BME280;57725;47.526;18.986;2023-05-07T04:14:46;99810.09;;;17.15;86.80
70314;BME280;57725;47.526;18.986;2023-05-07T04:17:12;99819.81;;;17.15;86.85
70314;BME280;57725;47.526;18.986;2023-05-07T04:19:37;99820.75;;;17.14;86.92
70314;BME280;57725;47.526;18.986;2023-05-07T04:22:05;99821.59;;;17.14;86.90
70314;BME280;57725;47.526;18.986;2023-05-07T04:24:33;99822.56;;;17.13;86.86
70314;BME280;57725;47.526;18.986;2023-05-07T04:27:01;99829.63;;;17.13;86.91
70314;BME280;57725;47.526;18.986;2023-05-07T04:29:26;99827.09;;;17.11;86.98
70314;BME280;57725;47.526;18.986;2023-05-07T04:31:52;99822.75;;;17.10;87.00
70314;BME280;57725;47.526;18.986;2023-05-07T04:34:17;99825.50;;;17.09;86.96
70314;BME280;57725;47.526;18.986;2023-05-07T04:36:43;99832.47;;;17.10;86.94
70314;BME280;57725;47.526;18.986;2023-05-07T04:39:13;99822.16;;;17.07;86.97
70314;BME280;57725;47.526;18.986;2023-05-07T04:41:38;99828.16;;;17.09;87.04
70314;BME280;57725;47.526;18.986;2023-05-07T04:44:04;99829.94;;;17.08;87.10
70314;BME280;57725;47.526;18.986;2023-05-07T04:46:30;99823.09;;;17.06;86.95
70314;BME280;57725;47.526;18.986;2023-05-07T04:48:57;99832.72;;;17.07;87.04
70314;BME280;57725;47.526;18.986;2023-05-07T04:51:23;99833.66;;;17.06;87.06
70314;BME280;57725;47.526;18.986;2023-05-07T04:53:48;99836.31;;;17.06;87.32
70314;BME280;57725;47.526;18.986;2023-05-07T04:56:18;99830.28;;;17.04;87.02
70314;BME280;57725;47.526;18.986;2023-05-07T04:58:43;99832.94;;;17.04;87.18
70314;BME280;57725;47.526;18.986;2023-05-07T05:01:09;99840.84;;;17.04;87.26
70314;BME280;57725;47.526;18.986;2023-05-07T05:03:36;99840.00;;;17.03;87.18
70314;BME280;57725;47.526;18.986;2023-05-07T05:06:05;99841.81;;;17.02;87.20
70314;BME280;57725;47.526;18.986;2023-05-07T05:08:30;99842.75;;;17.01;87.19
70314;BME280;57725;47.526;18.986;2023-05-07T05:10:58;99837.56;;;17.00;87.30
70314;BME280;57725;47.526;18.986;2023-05-07T05:13:27;99841.91;;;17.01;87.29
70314;BME280;57725;47.526;18.986;2023-05-07T05:15:53;99838.41;;;17.00;87.17
70314;BME280;57725;47.526;18.986;2023-05-07T05:18:18;99842.84;;;17.00;87.24
70314;BME280;57725;47.526;18.986;2023-05-07T05:20:55;99842.00;;;16.99;87.32
70314;BME280;57725;47.526;18.986;2023-05-07T05:23:23;99841.16;;;16.99;87.26
70314;BME280;57725;47.526;18.986;2023-05-07T05:25:49;99842.22;;;16.96;87.37
70314;BME280;57725;47.526;18.986;2023-05-07T05:28:14;99844.84;;;16.96;87.41
70314;BME280;57725;47.526;18.986;2023-05-07T05:30:40;99850.03;;;16.98;87.51
70314;BME280;57725;47.526;18.986;2023-05-07T05:33:05;99842.22;;;16.96;87.50
70314;BME280;57725;47.526;18.986;2023-05-07T05:35:33;99844.03;;;16.96;87.41
70314;BME280;57725;47.526;18.986;2023-05-07T05:38:05;99841.50;;;16.94;87.49
70314;BME280;57725;47.526;18.986;2023-05-07T05:40:31;99834.53;;;16.93;87.48
70314;BME280;57725;47.526;18.986;2023-05-07T05:42:59;99832.72;;;16.94;87.61
70314;BME280;57725;47.526;18.986;2023-05-07T05:45:30;99831.88;;;16.93;87.51
70314;BME280;57725;47.526;18.986;2023-05-07T05:47:57;99830.19;;;16.92;87.91
70314;BME280;57725;47.526;18.986;2023-05-07T05:50:25;99831.03;;;16.93;87.80
70314;BME280;57725;47.526;18.986;2023-05-07T05:52:53;99833.69;;;16.93;87.69
70314;BME280;57725;47.526;18.986;2023-05-07T05:55:19;99824.91;;;16.92;87.74
70314;BME280;57725;47.526;18.986;2023-05-07T05:57:47;99836.31;;;16.93;87.83
70314;BME280;57725;47.526;18.986;2023-05-07T06:00:15;99831.25;;;16.90;87.69
70314;BME280;57725;47.526;18.986;2023-05-07T06:02:41;99825.75;;;16.93;87.90
70314;BME280;57725;47.526;18.986;2023-05-07T06:05:10;99815.41;;;16.90;87.98
70314;BME280;57725;47.526;18.986;2023-05-07T06:07:37;99824.06;;;16.92;88.07
70314;BME280;57725;47.526;18.986;2023-05-07T06:10:06;99817.94;;;16.91;88.29
70314;BME280;57725;47.526;18.986;2023-05-07T06:12:32;99813.50;;;16.92;88.47
70314;BME280;57725;47.526;18.986;2023-05-07T06:14:57;99820.47;;;16.93;89.13
70314;BME280;57725;47.526;18.986;2023-05-07T06:17:29;99823.97;;;16.93;89.73
70314;BME280;57725;47.526;18.986;2023-05-07T06:19:54;99831.53;;;16.98;90.24
70314;BME280;57725;47.526;18.986;2023-05-07T06:22:20;99813.91;;;16.98;90.43
70314;BME280;57725;47.526;18.986;2023-05-07T06:24:45;99826.91;;;17.01;90.66
70314;BME280;57725;47.526;18.986;2023-05-07T06:27:13;99832.94;;;17.04;90.84
70314;BME280;57725;47.526;18.986;2023-05-07T06:29:43;99834.53;;;17.06;91.10
70314;BME280;57725;47.526;18.986;2023-05-07T06:32:12;99819.53;;;17.07;91.18
70314;BME280;57725;47.526;18.986;2023-05-07T06:34:40;99828.91;;;17.11;91.42
70314;BME280;57725;47.526;18.986;2023-05-07T06:37:08;99826.25;;;17.11;91.55
70314;BME280;57725;47.526;18.986;2023-05-07T06:39:45;99824.34;;;17.13;91.77
70314;BME280;57725;47.526;18.986;2023-05-07T06:42:11;99832.91;;;17.16;91.63
70314;BME280;57725;47.526;18.986;2023-05-07T06:44:36;99835.56;;;17.16;91.65
70314;BME280;57725;47.526;18.986;2023-05-07T06:47:01;99833.66;;;17.18;91.65
70314;BME280;57725;47.526;18.986;2023-05-07T06:49:27;99823.09;;;17.18;91.67
70314;BME280;57725;47.526;18.986;2023-05-07T06:52:00;99825.72;;;17.18;91.89
70314;BME280;57725;47.526;18.986;2023-05-07T06:54:31;99830.03;;;17.19;91.79
70314;BME280;57725;47.526;18.986;2023-05-07T06:57:10;99826.69;;;17.17;91.69
70314;BME280;57725;47.526;18.986;2023-05-07T06:59:39;99824.88;;;17.18;91.70
70314;BME280;57725;47.526;18.986;2023-05-07T07:02:04;99824.88;;;17.18;91.72
70314;BME280;57725;47.526;18.986;2023-05-07T07:04:30;99831.13;;;17.17;91.78
70314;BME280;57725;47.526;18.986;2023-05-07T07:06:58;99844.22;;;17.18;91.85
70314;BME280;57725;47.526;18.986;2023-05-07T07:09:28;99833.75;;;17.17;91.94
70314;BME280;57725;47.526;18.986;2023-05-07T07:11:56;99832.91;;;17.16;91.74
70314;BME280;57725;47.526;18.986;2023-05-07T07:14:24;99838.19;;;17.16;91.74
70314;BME280;57725;47.526;18.986;2023-05-07T07:16:49;99843.59;;;17.15;91.82
70314;BME280;57725;47.526;18.986;2023-05-07T07:19:15;99850.66;;;17.14;91.53
70314;BME280;57725;47.526;18.986;2023-05-07T07:21:43;99859.53;;;17.13;91.79
70314;BME280;57725;47.526;18.986;2023-05-07T07:24:11;99867.56;;;17.12;91.73
70314;BME280;57725;47.526;18.986;2023-05-07T07:26:36;99861.53;;;17.10;91.88
70314;BME280;57725;47.526;18.986;2023-05-07T07:29:02;99858.78;;;17.11;91.73
70314;BME280;57725;47.526;18.986;2023-05-07T07:31:27;99867.56;;;17.12;91.78
70314;BME280;57725;47.526;18.986;2023-05-07T07:33:53;99868.50;;;17.11;91.69
70314;BME280;57725;47.526;18.986;2023-05-07T07:36:18;99866.72;;;17.11;91.87
70314;BME280;57725;47.526;18.986;2023-05-07T07:38:43;99871.16;;;17.11;91.77
70314;BME280;57725;47.526;18.986;2023-05-07T07:41:11;99870.31;;;17.10;91.66
70314;BME280;57725;47.526;18.986;2023-05-07T07:43:39;99875.50;;;17.12;91.72
70314;BME280;57725;47.526;18.986;2023-05-07T07:46:04;99872.00;;;17.11;91.70
70314;BME280;57725;47.526;18.986;2023-05-07T07:48:33;99872.75;;;17.13;91.77
70314;BME280;57725;47.526;18.986;2023-05-07T07:51:00;99878.03;;;17.13;91.62
70314;BME280;57725;47.526;18.986;2023-05-07T07:53:28;99876.22;;;17.14;91.63
70314;BME280;57725;47.526;18.986;2023-05-07T07:55:54;99869.16;;;17.14;91.56
70314;BME280;57725;47.526;18.986;2023-05-07T07:58:19;99866.50;;;17.14;91.45
70314;BME280;57725;47.526;18.986;2023-05-07T08:00:45;99863.22;;;17.11;91.56
70314;BME280;57725;47.526;18.986;2023-05-07T08:03:12;99883.09;;;17.16;91.44
70314;BME280;57725;47.526;18.986;2023-05-07T08:05:37;99880.38;;;17.18;91.30
70314;BME280;57725;47.526;18.986;2023-05-07T08:08:04;99877.81;;;17.16;91.38
70314;BME280;57725;47.526;18.986;2023-05-07T08:10:29;99882.16;;;17.17;91.17
70314;BME280;57725;47.526;18.986;2023-05-07T08:12:54;99877.72;;;17.18;91.13
70314;BME280;57725;47.526;18.986;2023-05-07T08:15:22;99874.22;;;17.17;91.12
70314;BME280;57725;47.526;18.986;2023-05-07T08:17:48;99873.38;;;17.17;91.16
70314;BME280;57725;47.526;18.986;2023-05-07T08:20:13;99867.03;;;17.19;91.10
70314;BME280;57725;47.526;18.986;2023-05-07T08:22:39;99871.34;;;17.20;91.05
70314;BME280;57725;47.526;18.986;2023-05-07T08:25:07;99859.09;;;17.19;91.04
70314;BME280;57725;47.526;18.986;2023-05-07T08:27:35;99860.69;;;17.22;91.07
70314;BME280;57725;47.526;18.986;2023-05-07T08:30:07;99870.31;;;17.23;91.09
70314;BME280;57725;47.526;18.986;2023-05-07T08:32:37;99871.16;;;17.23;90.99
70314;BME280;57725;47.526;18.986;2023-05-07T08:35:02;99866.81;;;17.22;91.18
70314;BME280;57725;47.526;18.986;2023-05-07T08:37:28;99864.91;;;17.24;90.90
70314;BME280;57725;47.526;18.986;2023-05-07T08:39:58;99865.75;;;17.25;90.96
70314;BME280;57725;47.526;18.986;2023-05-07T08:42:24;99870.09;;;17.26;90.88
70314;BME280;57725;47.526;18.986;2023-05-07T08:44:51;99867.34;;;17.27;90.71
70314;BME280;57725;47.526;18.986;2023-05-07T08:47:19;99858.56;;;17.27;91.21
70314;BME280;57725;47.526;18.986;2023-05-07T08:49:45;99869.78;;;17.30;91.14
70314;BME280;57725;47.526;18.986;2023-05-07T08:52:12;99874.09;;;17.31;91.15
70314;BME280;57725;47.526;18.986;2023-05-07T08:54:40;99870.59;;;17.31;91.17
70314;BME280;57725;47.526;18.986;2023-05-07T08:57:08;99869.53;;;17.33;91.12
70314;BME280;57725;47.526;18.986;2023-05-07T08:59:35;99869.53;;;17.33;91.10
70314;BME280;57725;47.526;18.986;2023-05-07T09:02:02;99868.59;;;17.34;91.20
70314;BME280;57725;47.526;18.986;2023-05-07T09:04:29;99871.13;;;17.36;91.28
70314;BME280;57725;47.526;18.986;2023-05-07T09:07:02;99872.94;;;17.35;91.00
70314;BME280;57725;47.526;18.986;2023-05-07T09:09:32;99867.53;;;17.37;91.06
70314;BME280;57725;47.526;18.986;2023-05-07T09:11:57;99864.91;;;17.37;91.11
70314;BME280;57725;47.526;18.986;2023-05-07T09:14:27;99867.31;;;17.40;90.90
70314;BME280;57725;47.526;18.986;2023-05-07T09:16:55;99869.13;;;17.40;91.08
70314;BME280;57725;47.526;18.986;2023-05-07T09:19:24;99863.59;;;17.43;90.97
70314;BME280;57725;47.526;18.986;2023-05-07T09:21:49;99861.81;;;17.43;90.98
70314;BME280;57725;47.526;18.986;2023-05-07T09:24:19;99866.13;;;17.44;90.86
70314;BME280;57725;47.526;18.986;2023-05-07T09:26:50;99869.63;;;17.45;91.03
70314;BME280;57725;47.526;18.986;2023-05-07T09:29:15;99860.75;;;17.46;90.85
70314;BME280;57725;47.526;18.986;2023-05-07T09:31:42;99866.78;;;17.48;90.91
70314;BME280;57725;47.526;18.986;2023-05-07T09:34:07;99866.78;;;17.48;91.00
70314;BME280;57725;47.526;18.986;2023-05-07T09:36:35;99873.66;;;17.50;90.81
70314;BME280;57725;47.526;18.986;2023-05-07T09:39:03;99870.06;;;17.51;90.92
70314;BME280;57725;47.526;18.986;2023-05-07T09:41:43;99862.13;;;17.51;90.87
70314;BME280;57725;47.526;18.986;2023-05-07T09:44:13;99868.25;;;17.52;90.76
70314;BME280;57725;47.526;18.986;2023-05-07T09:46:42;99867.31;;;17.53;90.75
70314;BME280;57725;47.526;18.986;2023-05-07T09:49:13;99872.44;;;17.54;90.84
70314;BME280;57725;47.526;18.986;2023-05-07T09:54:16;99868.84;;;17.55;90.74
70314;BME280;57725;47.526;18.986;2023-05-07T09:56:43;99867.91;;;17.56;90.69
70314;BME280;57725;47.526;18.986;2023-05-07T09:59:13;99873.19;;;17.56;90.81
70314;BME280;57725;47.526;18.986;2023-05-07T10:01:45;99873.94;;;17.58;90.66
70314;BME280;57725;47.526;18.986;2023-05-07T10:04:13;99876.56;;;17.58;90.57
70314;BME280;57725;47.526;18.986;2023-05-07T10:06:39;99872.97;;;17.59;90.53
70314;BME280;57725;47.526;18.986;2023-05-07T10:09:05;99878.16;;;17.61;90.52
70314;BME280;57725;47.526;18.986;2023-05-07T10:11:34;99872.88;;;17.61;90.29
70314;BME280;57725;47.526;18.986;2023-05-07T10:14:01;99878.94;;;17.63;90.25
70314;BME280;57725;47.526;18.986;2023-05-07T10:16:29;99881.59;;;17.63;90.41
70314;BME280;57725;47.526;18.986;2023-05-07T10:18:58;99875.34;;;17.64;90.37
70314;BME280;57725;47.526;18.986;2023-05-07T10:21:27;99877.84;;;17.65;90.26
70314;BME280;57725;47.526;18.986;2023-05-07T10:26:27;99869.09;;;17.65;90.11
70314;BME280;57725;47.526;18.986;2023-05-07T10:28:58;99870.66;;;17.67;89.93
70314;BME280;57725;47.526;18.986;2023-05-07T10:34:00;99873.09;;;17.70;90.20
70314;BME280;57725;47.526;18.986;2023-05-07T10:36:27;99872.03;;;17.73;90.16
70314;BME280;57725;47.526;18.986;2023-05-07T10:38:53;99869.28;;;17.75;90.20
70314;BME280;57725;47.526;18.986;2023-05-07T10:41:21;99872.78;;;17.75;90.71
70314;BME280;57725;47.526;18.986;2023-05-07T10:43:49;99876.13;;;17.77;90.48
70314;BME280;57725;47.526;18.986;2023-05-07T10:46:18;99881.31;;;17.79;90.39
70314;BME280;57725;47.526;18.986;2023-05-07T10:51:30;99872.41;;;17.80;90.06
70314;BME280;57725;47.526;18.986;2023-05-07T10:56:38;99869.66;;;17.81;90.49
70314;BME280;57725;47.526;18.986;2023-05-07T11:02:00;99873.78;;;17.85;90.63
70314;BME280;57725;47.526;18.986;2023-05-07T11:04:31;99872.00;;;17.86;90.23
70314;BME280;57725;47.526;18.986;2023-05-07T11:15:11;99858.53;;;17.89;90.57
70314;BME280;57725;47.526;18.986;2023-05-07T11:17:55;99851.31;;;17.91;90.55
70314;BME280;57725;47.526;18.986;2023-05-07T11:28:38;99866.88;;;17.95;90.49
70314;BME280;57725;47.526;18.986;2023-05-07T11:31:04;99862.31;;;17.97;90.14
70314;BME280;57725;47.526;18.986;2023-05-07T11:33:33;99859.66;;;17.97;90.89
70314;BME280;57725;47.526;18.986;2023-05-07T11:36:05;99859.56;;;17.99;90.80
70314;BME280;57725;47.526;18.986;2023-05-07T11:38:35;99862.06;;;18.00;90.77
70314;BME280;57725;47.526;18.986;2023-05-07T11:41:00;99860.25;;;18.01;90.90
70314;BME280;57725;47.526;18.986;2023-05-07T11:43:29;99860.16;;;18.02;91.09
70314;BME280;57725;47.526;18.986;2023-05-07T11:46:05;99851.25;;;18.03;90.83
70314;BME280;57725;47.526;18.986;2023-05-07T11:48:32;99857.41;;;18.04;90.50
70314;BME280;57725;47.526;18.986;2023-05-07T11:51:05;99857.41;;;18.04;89.96
70314;BME280;57725;47.526;18.986;2023-05-07T11:53:39;99851.16;;;18.05;90.08
70314;BME280;57725;47.526;18.986;2023-05-07T11:56:12;99850.19;;;18.06;89.84
70314;BME280;57725;47.526;18.986;2023-05-07T11:58:38;99842.16;;;18.07;89.76
70314;BME280;57725;47.526;18.986;2023-05-07T12:01:07;99844.81;;;18.07;89.60
70314;BME280;57725;47.526;18.986;2023-05-07T12:03:37;99839.28;;;18.11;89.88
70314;BME280;57725;47.526;18.986;2023-05-07T12:06:05;99840.94;;;18.12;90.38
70314;BME280;57725;47.526;18.986;2023-05-07T12:08:32;99846.25;;;18.12;90.31
70314;BME280;57725;47.526;18.986;2023-05-07T12:10:58;99840.84;;;18.13;90.36
70314;BME280;57725;47.526;18.986;2023-05-07T12:13:25;99838.09;;;18.15;90.41
70314;BME280;57725;47.526;18.986;2023-05-07T12:15:54;99838.09;;;18.15;90.35
70314;BME280;57725;47.526;18.986;2023-05-07T12:18:20;99842.44;;;18.16;90.17
70314;BME280;57725;47.526;18.986;2023-05-07T12:20:46;99842.44;;;18.16;90.18
70314;BME280;57725;47.526;18.986;2023-05-07T12:23:13;99838.81;;;18.17;89.88
70314;BME280;57725;47.526;18.986;2023-05-07T12:25:41;99836.91;;;18.19;89.69
70314;BME280;57725;47.526;18.986;2023-05-07T12:28:18;99842.19;;;18.19;89.61
70314;BME280;57725;47.526;18.986;2023-05-07T12:30:48;99834.25;;;18.19;89.43
70314;BME280;57725;47.526;18.986;2023-05-07T12:33:17;99830.56;;;18.21;89.61
70314;BME280;57725;47.526;18.986;2023-05-07T12:35:43;99834.88;;;18.22;89.46
70314;BME280;57725;47.526;18.986;2023-05-07T12:38:12;99834.88;;;18.22;89.64
70314;BME280;57725;47.526;18.986;2023-05-07T12:40:43;99835.59;;;18.24;89.46
70314;BME280;57725;47.526;18.986;2023-05-07T12:43:19;99827.53;;;18.26;89.93
70314;BME280;57725;47.526;18.986;2023-05-07T12:45:48;99826.69;;;18.25;89.52
70314;BME280;57725;47.526;18.986;2023-05-07T12:48:17;99833.56;;;18.28;89.40
70314;BME280;57725;47.526;18.986;2023-05-07T12:50:42;99839.72;;;18.28;89.57
70314;BME280;57725;47.526;18.986;2023-05-07T12:53:11;99833.47;;;18.29;89.75
70314;BME280;57725;47.526;18.986;2023-05-07T12:55:56;99835.16;;;18.30;89.73
70314;BME280;57725;47.526;18.986;2023-05-07T12:58:33;99838.63;;;18.31;89.55
70314;BME280;57725;47.526;18.986;2023-05-07T13:01:06;99822.75;;;18.31;89.57
70314;BME280;57725;47.526;18.986;2023-05-07T13:03:34;99824.44;;;18.32;89.57
70314;BME280;57725;47.526;18.986;2023-05-07T13:06:12;99828.78;;;18.33;89.32
70314;BME280;57725;47.526;18.986;2023-05-07T13:08:39;99833.13;;;18.34;89.38
70314;BME280;57725;47.526;18.986;2023-05-07T13:11:09;99816.25;;;18.35;89.18
70314;BME280;57725;47.526;18.986;2023-05-07T13:13:38;99825.03;;;18.35;89.49
70314;BME280;57725;47.526;18.986;2023-05-07T13:16:10;99832.88;;;18.37;89.24
70314;BME280;57725;47.526;18.986;2023-05-07T13:18:37;99831.91;;;18.38;89.41
70314;BME280;57725;47.526;18.986;2023-05-07T13:21:03;99819.63;;;18.37;88.99
70314;BME280;57725;47.526;18.986;2023-05-07T13:23:28;99828.31;;;18.39;89.06
70314;BME280;57725;47.526;18.986;2023-05-07T13:25:57;99827.34;;;18.40;89.29